Time;durP1;ratioP1;P1;durP2;ratioP2;P2;SDS_P1;SDS_P2;PMS_P1;PMS_P2;Temp;Humidity;BMP_temperature;BMP_pressure;BME280_temperature;BME280_humidity;BME280_pressure;Samples;Min_cycle;Max_cycle;Signal;HPM_P1;HPM_P2
2024/01/11 00:01:37;;;;;;;53.05;27.20;;;;;;;-7.46;100.00;98267.22;4996707;28;20402;-77
2024/01/11 00:04:03;;;;;;;48.35;25.48;;;;;;;-7.47;100.00;98262.19;4994070;28;20395;-77
2024/01/11 00:06:29;;;;;;;51.05;25.73;;;;;;;-7.48;100.00;98263.13;4994257;28;20446;-77
2024/01/11 00:08:56;;;;;;;46.70;24.20;;;;;;;-7.50;100.00;98259.84;4995004;28;20827;-77
2024/01/11 00:11:22;;;;;;;55.75;27.95;;;;;;;-7.52;100.00;98267.66;4993815;28;20442;-77
2024/01/11 00:13:48;;;;;;;44.50;24.50;;;;;;;-7.53;100.00;98265.25;4993672;28;20399;-77
2024/01/11 00:16:14;;;;;;;46.77;24.63;;;;;;;-7.54;100.00;98264.41;4993544;28;20487;-78
2024/01/11 00:18:41;;;;;;;45.05;23.02;;;;;;;-7.55;100.00;98267.91;4993851;28;20425;-76
2024/01/11 00:21:08;;;;;;;45.28;23.15;;;;;;;-7.57;100.00;98269.78;4994752;28;20998;-75
2024/01/11 00:23:34;;;;;;;42.67;21.73;;;;;;;-7.57;100.00;98277.50;4992503;28;20486;-76
2024/01/11 00:26:00;;;;;;;54.53;27.92;;;;;;;-7.58;100.00;98273.28;4993864;28;20445;-75
2024/01/11 00:28:26;;;;;;;49.78;26.83;;;;;;;-7.61;100.00;98273.53;4993576;28;20430;-75
2024/01/11 00:30:52;;;;;;;54.28;27.45;;;;;;;-7.61;100.00;98283.81;4993376;28;20743;-77
2024/01/11 00:33:18;;;;;;;51.08;26.08;;;;;;;-7.62;100.00;98282.16;4993665;28;20445;-77
2024/01/11 00:35:46;;;;;;;46.10;24.48;;;;;;;-7.61;100.00;98281.25;4993502;28;20406;-77
2024/01/11 00:38:12;;;;;;;50.25;25.60;;;;;;;-7.63;100.00;98282.28;4991809;28;20795;-78
2024/01/11 00:40:38;;;;;;;47.70;24.38;;;;;;;-7.63;100.00;98277.13;4993356;28;20399;-77
2024/01/11 00:43:04;;;;;;;50.90;26.33;;;;;;;-7.64;100.00;98283.22;4993498;28;20403;-77
2024/01/11 00:45:30;;;;;;;54.47;27.25;;;;;;;-7.65;100.00;98277.25;4993062;28;20410;-77
2024/01/11 00:47:56;;;;;;;51.72;25.65;;;;;;;-7.66;100.00;98274.78;4991561;28;20457;-77
2024/01/11 00:50:22;;;;;;;49.10;25.02;;;;;;;-7.68;100.00;98282.63;4993289;28;20905;-77
2024/01/11 00:52:50;;;;;;;50.90;26.90;;;;;;;-7.69;100.00;98273.28;4993361;28;20581;-76
2024/01/11 00:55:16;;;;;;;50.97;27.58;;;;;;;-7.69;100.00;98273.28;4993245;28;20442;-77
2024/01/11 00:57:42;;;;;;;46.90;24.55;;;;;;;-7.69;100.00;98267.31;4993392;28;20462;-76
2024/01/11 01:00:13;;;;;;;52.53;27.15;;;;;;;-7.68;100.00;98266.41;4992809;28;20426;-76
2024/01/11 01:02:40;;;;;;;50.67;26.20;;;;;;;-7.70;100.00;98274.22;4982827;28;20414;-76
2024/01/11 01:05:07;;;;;;;48.58;25.67;;;;;;;-7.71;100.00;98277.72;4983419;28;20399;-75
2024/01/11 01:07:33;;;;;;;56.10;27.73;;;;;;;-7.72;100.00;98281.22;4983055;28;20415;-78
2024/01/11 01:10:01;;;;;;;53.80;27.40;;;;;;;-7.74;100.00;98279.72;4983026;28;20399;-77
2024/01/11 01:12:28;;;;;;;56.47;29.08;;;;;;;-7.74;100.00;98282.28;4992780;28;20394;-76
2024/01/11 01:14:55;;;;;;;59.33;29.85;;;;;;;-7.74;100.00;98288.22;4992720;28;20485;-76
2024/01/11 01:17:22;;;;;;;55.70;27.58;;;;;;;-7.74;100.00;98277.16;4992707;28;20402;-76
2024/01/11 01:19:48;;;;;;;56.58;28.85;;;;;;;-7.75;100.00;98281.47;5010544;28;20412;-76
2024/01/11 01:22:14;;;;;;;57.90;28.13;;;;;;;-7.75;100.00;98283.22;5012126;28;20850;-76
2024/01/11 01:24:40;;;;;;;69.47;33.87;;;;;;;-7.76;100.00;98277.25;5011998;28;20796;-76
2024/01/11 01:27:08;;;;;;;63.35;31.20;;;;;;;-7.75;100.00;98275.50;5012132;28;20401;-76
2024/01/11 01:29:34;;;;;;;70.40;32.55;;;;;;;-7.76;100.00;98272.13;5012178;28;20409;-76
2024/01/11 01:32:00;;;;;;;59.35;30.60;;;;;;;-7.76;100.00;98274.69;5012046;28;20403;-75
2024/01/11 01:34:26;;;;;;;54.60;29.08;;;;;;;-7.78;100.00;98278.28;5011864;28;20944;-76
2024/01/11 01:36:52;;;;;;;53.28;27.35;;;;;;;-7.79;100.00;98282.59;5012113;28;20401;-76
2024/01/11 01:39:19;;;;;;;53.33;25.92;;;;;;;-7.83;100.00;98276.91;5011907;28;20447;-75
2024/01/11 01:41:45;;;;;;;53.38;27.33;;;;;;;-7.84;100.00;98289.84;5012197;28;20408;-75
2024/01/11 01:44:12;;;;;;;57.65;29.38;;;;;;;-7.85;100.00;98283.06;5011989;28;20408;-75
2024/01/11 01:46:39;;;;;;;61.13;30.20;;;;;;;-7.85;100.00;98293.34;5012115;28;20408;-75
2024/01/11 01:49:05;;;;;;;59.05;29.65;;;;;;;-7.86;100.00;98296.84;5011714;28;20397;-75
2024/01/11 01:51:33;;;;;;;53.95;27.83;;;;;;;-7.86;100.00;98302.00;5011802;28;20428;-75
2024/01/11 01:54:01;;;;;;;56.40;27.95;;;;;;;-7.89;100.00;98300.44;5011931;28;20500;-75
2024/01/11 01:56:28;;;;;;;49.60;24.85;;;;;;;-7.91;100.00;98312.63;5011799;28;20393;-75
2024/01/11 01:58:55;;;;;;;49.78;24.75;;;;;;;-7.93;100.00;98313.66;5011714;28;20416;-75
2024/01/11 02:01:25;;;;;;;46.83;24.13;;;;;;;-7.93;100.00;98317.03;5011721;28;20480;-75
2024/01/11 02:03:54;;;;;;;51.60;25.58;;;;;;;-7.95;100.00;98318.91;5011746;28;20466;-76
2024/01/11 02:06:23;;;;;;;48.22;25.23;;;;;;;-7.96;100.00;98308.72;5011745;28;20451;-76
2024/01/11 02:08:51;;;;;;;56.65;28.70;;;;;;;-7.96;100.00;98312.13;5011848;28;20431;-75
2024/01/11 02:11:18;;;;;;;60.67;29.80;;;;;;;-7.97;100.00;98312.25;5011744;28;20393;-76
2024/01/11 02:13:46;;;;;;;55.70;27.48;;;;;;;-7.98;100.00;98308.84;5011395;28;20400;-75
2024/01/11 02:16:12;;;;;;;58.08;29.02;;;;;;;-7.99;100.00;98317.50;5011410;28;20854;-76
2024/01/11 02:18:40;;;;;;;53.08;26.60;;;;;;;-8.00;100.00;98307.31;5012218;28;20417;-75
2024/01/11 02:21:11;;;;;;;53.42;26.92;;;;;;;-8.02;100.00;98302.28;5015854;28;20900;-75
2024/01/11 02:23:45;;;;;;;54.38;28.02;;;;;;;-8.01;100.00;98310.81;5018580;28;20385;-76
2024/01/11 02:26:13;;;;;;;52.60;26.33;;;;;;;-8.02;100.00;98311.75;5015774;28;20439;-76
2024/01/11 02:28:43;;;;;;;47.58;25.10;;;;;;;-8.05;100.00;98312.81;5015995;28;20766;-77
2024/01/11 02:31:10;;;;;;;49.55;25.15;;;;;;;-8.08;100.00;98315.59;5015762;28;20439;-77
2024/01/11 02:33:37;;;;;;;45.67;23.88;;;;;;;-8.08;100.00;98305.31;5015396;28;20407;-77
2024/01/11 02:36:04;;;;;;;47.95;24.75;;;;;;;-8.07;100.00;98311.28;5015867;28;20896;-77
2024/01/11 02:38:30;;;;;;;46.00;23.45;;;;;;;-8.09;100.00;98313.13;5015383;28;20392;-77
2024/01/11 02:40:58;;;;;;;44.85;22.58;;;;;;;-8.10;100.00;98312.31;5015394;28;20463;-77
2024/01/11 02:43:26;;;;;;;45.17;22.23;;;;;;;-8.09;100.00;98315.69;5015269;28;20396;-77
2024/01/11 02:45:55;;;;;;;44.63;23.23;;;;;;;-8.10;100.00;98325.16;5015467;28;20401;-77
2024/01/11 02:48:21;;;;;;;49.93;24.17;;;;;;;-8.10;100.00;98321.75;5015377;28;20401;-77
2024/01/11 02:50:48;;;;;;;47.00;23.80;;;;;;;-8.12;100.00;98318.50;5015123;28;20388;-77
2024/01/11 02:53:14;;;;;;;50.60;26.02;;;;;;;-8.13;100.00;98311.72;5016049;28;20407;-77
2024/01/11 02:55:40;;;;;;;55.30;26.02;;;;;;;-8.14;100.00;98310.09;5014999;28;20397;-75
2024/01/11 02:58:06;;;;;;;49.73;25.57;;;;;;;-8.16;100.00;98315.31;5015581;28;20405;-76
2024/01/11 03:00:34;;;;;;;46.08;22.50;;;;;;;-8.16;100.00;98311.94;5014889;28;20416;-76
2024/01/11 03:03:00;;;;;;;52.25;26.48;;;;;;;-8.18;100.00;98303.53;5011111;28;20809;-76
2024/01/11 03:05:26;;;;;;;51.45;26.65;;;;;;;-8.21;100.00;98299.44;4995139;28;20438;-76
2024/01/11 03:07:52;;;;;;;52.78;26.80;;;;;;;-8.22;100.00;98298.63;4995200;28;20436;-76
2024/01/11 03:10:19;;;;;;;50.80;25.42;;;;;;;-8.23;100.00;98294.41;4994937;28;20725;-76
2024/01/11 03:12:45;;;;;;;50.47;25.67;;;;;;;-8.23;100.00;98296.97;4995208;28;20487;-76
2024/01/11 03:15:11;;;;;;;47.70;24.63;;;;;;;-8.24;100.00;98294.53;4994946;28;20441;-76
2024/01/11 03:17:38;;;;;;;67.40;32.78;;;;;;;-8.26;100.00;98288.66;4995086;28;20413;-76
2024/01/11 03:20:05;;;;;;;56.38;28.55;;;;;;;-8.27;100.00;98287.84;4994908;28;20422;-76
2024/01/11 03:22:32;;;;;;;51.88;26.80;;;;;;;-8.27;100.00;98289.63;4994710;28;20398;-76
2024/01/11 03:24:58;;;;;;;48.63;24.55;;;;;;;-8.29;100.00;98287.16;4994799;28;20397;-76
2024/01/11 03:27:24;;;;;;;47.17;24.30;;;;;;;-8.30;100.00;98290.66;4995010;28;20411;-76
2024/01/11 03:29:50;;;;;;;47.45;24.88;;;;;;;-8.30;100.00;98287.25;4994510;28;20414;-76
2024/01/11 03:32:16;;;;;;;52.65;28.33;;;;;;;-8.33;100.00;98285.75;4994097;28;20434;-76
2024/01/11 03:34:44;;;;;;;48.83;26.27;;;;;;;-8.33;100.00;98290.06;4994677;28;20410;-76
2024/01/11 03:37:10;;;;;;;48.40;25.90;;;;;;;-8.36;100.00;98280.88;4995283;28;20438;-76
2024/01/11 03:39:36;;;;;;;47.85;26.05;;;;;;;-8.36;100.00;98287.75;4994966;28;20804;-77
2024/01/11 03:42:03;;;;;;;51.88;26.20;;;;;;;-8.38;100.00;98287.84;4994924;28;20791;-76
2024/01/11 03:44:31;;;;;;;48.60;24.40;;;;;;;-8.39;100.00;98280.25;4994596;28;20406;-75
2024/01/11 03:46:57;;;;;;;48.40;25.23;;;;;;;-8.40;100.00;98284.56;4994844;28;20427;-77
2024/01/11 03:49:23;;;;;;;41.20;21.95;;;;;;;-8.41;100.00;98285.50;4995736;28;20407;-76
2024/01/11 03:51:51;;;;;;;44.97;23.17;;;;;;;-8.42;100.00;98281.28;4995246;28;20721;-75
2024/01/11 03:54:17;;;;;;;44.40;23.60;;;;;;;-8.42;100.00;98285.63;4994892;28;20446;-76
2024/01/11 03:56:43;;;;;;;53.30;26.73;;;;;;;-8.45;100.00;98289.22;4994752;28;20425;-75
2024/01/11 03:59:11;;;;;;;51.00;26.95;;;;;;;-8.46;100.00;98285.03;4994490;28;20513;-75
2024/01/11 04:01:40;;;;;;;55.78;27.98;;;;;;;-8.44;100.00;98283.16;4995153;28;20394;-77
2024/01/11 04:04:06;;;;;;;52.05;27.02;;;;;;;-8.47;100.00;98288.50;4994642;28;20410;-77
2024/01/11 04:06:32;;;;;;;51.08;25.55;;;;;;;-8.46;100.00;98273.94;4994809;28;20399;-77
2024/01/11 04:09:00;;;;;;;46.63;25.35;;;;;;;-8.48;100.00;98279.16;4995167;28;20409;-77
2024/01/11 04:11:28;;;;;;;48.72;26.63;;;;;;;-8.50;100.00;98270.78;4994995;28;20445;-76
2024/01/11 04:13:54;;;;;;;49.50;25.17;;;;;;;-8.50;100.00;98287.94;4994816;28;20763;-77
2024/01/11 04:16:20;;;;;;;48.60;26.00;;;;;;;-8.51;100.00;98278.59;4996288;28;20398;-77
2024/01/11 04:18:47;;;;;;;48.08;25.70;;;;;;;-8.51;100.00;98269.13;4996198;28;20426;-77
2024/01/11 04:21:21;;;;;;;57.80;28.45;;;;;;;-8.50;100.00;98269.97;4993891;28;20429;-76
2024/01/11 04:23:47;;;;;;;48.58;26.42;;;;;;;-8.49;100.00;98271.59;4994353;28;20709;-75
2024/01/11 04:26:15;;;;;;;49.08;25.15;;;;;;;-8.50;100.00;98275.91;4994022;28;20398;-76
2024/01/11 04:28:41;;;;;;;45.42;24.67;;;;;;;-8.51;100.00;98273.44;4994522;28;20441;-76
2024/01/11 04:31:08;;;;;;;54.95;27.83;;;;;;;-8.51;100.00;98283.72;4994178;28;20402;-76
2024/01/11 04:33:34;;;;;;;52.03;26.03;;;;;;;-8.53;100.00;98281.25;4994798;28;20875;-77
2024/01/11 04:36:01;;;;;;;48.80;25.92;;;;;;;-8.54;100.00;98281.34;4995425;28;20402;-77
2024/01/11 04:38:27;;;;;;;59.78;30.77;;;;;;;-8.56;100.00;98272.94;4993754;28;20394;-77
2024/01/11 04:40:53;;;;;;;51.92;25.95;;;;;;;-8.57;100.00;98277.28;4993819;28;20423;-77
2024/01/11 04:43:20;;;;;;;49.25;25.42;;;;;;;-8.58;100.00;98273.06;4993340;28;20485;-77
2024/01/11 04:45:46;;;;;;;49.42;25.35;;;;;;;-8.59;100.00;98274.00;4993543;28;20402;-77
2024/01/11 04:48:13;;;;;;;46.30;24.10;;;;;;;-8.59;100.00;98275.75;4992589;28;20883;-77
2024/01/11 04:50:39;;;;;;;50.97;26.25;;;;;;;-8.59;100.00;98273.19;4992711;28;20508;-77
2024/01/11 04:53:05;;;;;;;50.58;26.23;;;;;;;-8.61;100.00;98271.53;4988228;28;20402;-77
2024/01/11 04:55:31;;;;;;;49.93;25.93;;;;;;;-8.61;100.00;98273.28;4993479;28;20409;-76
2024/01/11 04:57:58;;;;;;;48.78;25.92;;;;;;;-8.63;100.00;98270.81;4993372;28;20394;-76
2024/01/11 05:00:25;;;;;;;47.83;24.02;;;;;;;-8.64;100.00;98263.22;4992447;28;20426;-77
2024/01/11 05:02:51;;;;;;;44.72;23.98;;;;;;;-8.64;100.00;98270.91;4992693;28;20405;-76
2024/01/11 05:05:18;;;;;;;43.08;22.25;;;;;;;-8.67;100.00;98264.28;4992976;28;20434;-76
2024/01/11 05:07:44;;;;;;;55.50;28.70;;;;;;;-8.67;100.00;98279.69;4984101;28;20762;-76
2024/01/11 05:10:10;;;;;;;53.40;25.98;;;;;;;-8.68;100.00;98278.03;4993421;28;20414;-75
2024/01/11 05:12:38;;;;;;;52.97;25.70;;;;;;;-8.67;100.00;98278.84;4993020;28;20394;-77
2024/01/11 05:15:06;;;;;;;48.05;23.50;;;;;;;-8.68;100.00;98280.59;4994393;28;20398;-77
2024/01/11 05:17:33;;;;;;;51.20;25.43;;;;;;;-8.68;100.00;98284.91;4995027;28;20485;-78
2024/01/11 05:20:00;;;;;;;51.55;25.35;;;;;;;-8.69;100.00;98289.22;4994780;28;20419;-78
2024/01/11 05:22:26;;;;;;;48.60;23.38;;;;;;;-8.69;100.00;98294.34;4994554;28;20403;-78
2024/01/11 05:24:52;;;;;;;47.97;22.95;;;;;;;-8.69;100.00;98298.66;4994789;28;20405;-78
2024/01/11 05:27:18;;;;;;;50.05;25.58;;;;;;;-8.70;100.00;98294.47;4994876;28;20971;-77
2024/01/11 05:29:44;;;;;;;50.58;25.90;;;;;;;-8.71;100.00;98298.78;4994382;28;20906;-77
2024/01/11 05:32:10;;;;;;;52.80;26.30;;;;;;;-8.70;100.00;98299.59;4992891;28;20958;-76
2024/01/11 05:34:38;;;;;;;48.53;24.15;;;;;;;-8.71;100.00;98303.09;4994278;28;20887;-77
2024/01/11 05:37:04;;;;;;;84.40;40.42;;;;;;;-8.71;100.00;98303.09;4996538;28;20430;-77
2024/01/11 05:39:30;;;;;;;67.65;32.33;;;;;;;-8.71;100.00;98300.50;4994877;28;20484;-78
2024/01/11 05:41:57;;;;;;;62.40;29.60;;;;;;;-8.72;100.00;98304.81;5006673;28;20397;-77
2024/01/11 05:44:23;;;;;;;57.40;27.90;;;;;;;-8.73;100.00;98310.91;4982869;28;20404;-78
2024/01/11 05:46:49;;;;;;;57.65;29.90;;;;;;;-8.74;100.00;98314.41;4983158;28;20406;-77
2024/01/11 05:49:15;;;;;;;56.63;26.05;;;;;;;-8.75;100.00;98323.03;4991785;28;20425;-77
2024/01/11 05:51:43;;;;;;;52.92;27.05;;;;;;;-8.77;100.00;98318.91;4994480;28;20407;-78
2024/01/11 05:54:09;;;;;;;49.13;24.85;;;;;;;-8.79;100.00;98319.00;4992931;28;20457;-77
2024/01/11 05:56:35;;;;;;;48.75;24.52;;;;;;;-8.80;100.00;98327.66;4994272;28;20443;-78
2024/01/11 05:59:01;;;;;;;45.17;23.63;;;;;;;-8.80;100.00;98335.34;4990276;28;20422;-77
2024/01/11 06:01:27;;;;;;;50.38;25.42;;;;;;;-8.80;100.00;98334.53;4978279;28;20431;-78
2024/01/11 06:03:54;;;;;;;54.40;25.63;;;;;;;-8.81;100.00;98331.16;4985108;28;20867;-77
2024/01/11 06:06:21;;;;;;;48.13;24.77;;;;;;;-8.82;100.00;98326.94;4993693;28;20494;-79
2024/01/11 06:08:48;;;;;;;46.03;23.48;;;;;;;-8.81;100.00;98340.59;4994093;28;20398;-78
2024/01/11 06:11:15;;;;;;;51.47;26.45;;;;;;;-8.82;100.00;98344.09;4998206;28;20409;-78
2024/01/11 06:13:41;;;;;;;56.67;26.48;;;;;;;-8.83;100.00;98329.59;4997178;28;20402;-78
2024/01/11 06:16:07;;;;;;;49.03;24.67;;;;;;;-8.83;100.00;98338.13;4999558;28;20403;-79
2024/01/11 06:18:35;;;;;;;54.65;26.25;;;;;;;-8.84;100.00;98340.78;4999968;28;20418;-77
2024/01/11 06:21:01;;;;;;;51.70;24.83;;;;;;;-8.85;100.00;98341.72;4993635;28;20513;-78
2024/01/11 06:23:27;;;;;;;58.97;29.75;;;;;;;-8.87;100.00;98338.47;4995956;28;20434;-77
2024/01/11 06:25:54;;;;;;;52.60;26.27;;;;;;;-8.88;100.00;98329.13;4992291;28;20438;-77
2024/01/11 06:28:20;;;;;;;48.83;24.60;;;;;;;-8.90;100.00;98333.53;4992816;28;20441;-78
2024/01/11 06:30:46;;;;;;;50.33;25.92;;;;;;;-8.92;100.00;98331.06;4993192;28;20398;-77
2024/01/11 06:33:13;;;;;;;56.45;27.52;;;;;;;-8.94;100.00;98327.78;4993567;28;20399;-76
2024/01/11 06:35:39;;;;;;;57.55;28.02;;;;;;;-8.94;100.00;98329.53;4991945;28;20402;-77
2024/01/11 06:38:06;;;;;;;53.58;25.60;;;;;;;-8.95;100.00;98328.72;4992051;28;20402;-76
2024/01/11 06:40:32;;;;;;;53.00;26.17;;;;;;;-8.96;100.00;98329.66;4991466;28;20422;-76
2024/01/11 06:42:59;;;;;;;53.45;27.00;;;;;;;-8.95;100.00;98333.03;4991366;28;20399;-76
2024/01/11 06:45:25;;;;;;;55.22;27.95;;;;;;;-8.94;100.00;98332.09;4991513;28;20753;-77
2024/01/11 06:47:51;;;;;;;59.58;29.17;;;;;;;-8.94;100.00;98329.53;4991246;28;20406;-77
2024/01/11 06:50:17;;;;;;;55.63;27.58;;;;;;;-8.94;100.00;98334.66;4991199;28;20461;-76
2024/01/11 06:52:44;;;;;;;53.17;25.87;;;;;;;-8.95;100.00;98333.03;4992285;28;20406;-78
2024/01/11 06:55:10;;;;;;;55.75;26.40;;;;;;;-8.96;100.00;98345.03;4994543;28;20437;-79
2024/01/11 06:57:37;;;;;;;50.72;25.45;;;;;;;-9.00;100.00;98354.69;4996117;28;20408;-78
2024/01/11 07:00:07;;;;;;;57.53;28.27;;;;;;;-8.99;100.00;98350.38;4995907;28;20496;-78
2024/01/11 07:02:33;;;;;;;57.25;27.20;;;;;;;-9.00;100.00;98353.84;4996056;28;20474;-78
2024/01/11 07:04:59;;;;;;;56.97;28.73;;;;;;;-8.99;100.00;98350.38;4991273;28;20408;-79
2024/01/11 07:07:26;;;;;;;57.63;29.70;;;;;;;-9.00;100.00;98351.28;4989817;28;20406;-79
2024/01/11 07:09:55;;;;;;;63.42;31.75;;;;;;;-8.99;100.00;98358.06;5000236;28;20721;-79
2024/01/11 07:12:21;;;;;;;54.38;27.45;;;;;;;-8.98;100.00;98364.84;5000543;28;20410;-79
2024/01/11 07:14:48;;;;;;;57.47;28.30;;;;;;;-8.98;100.00;98369.97;4998847;28;20398;-79
2024/01/11 07:17:15;;;;;;;46.85;25.48;;;;;;;-8.98;100.00;98377.66;4999694;28;20402;-79
2024/01/11 07:19:41;;;;;;;55.80;28.13;;;;;;;-8.98;100.00;98376.84;5000994;28;20884;-79
2024/01/11 07:22:07;;;;;;;56.35;28.73;;;;;;;-8.99;100.00;98373.44;5000725;28;20414;-79
2024/01/11 07:24:37;;;;;;;58.78;28.42;;;;;;;-8.98;100.00;98362.28;5000004;28;20756;-79
2024/01/11 07:27:04;;;;;;;58.80;29.05;;;;;;;-8.95;100.00;98362.06;5000661;28;20398;-79
2024/01/11 07:29:30;;;;;;;58.03;28.45;;;;;;;-8.92;100.00;98366.97;5000909;28;20453;-79
2024/01/11 07:31:56;;;;;;;54.67;27.25;;;;;;;-8.89;100.00;98368.53;4999516;28;20402;-79
2024/01/11 07:34:24;;;;;;;53.00;26.45;;;;;;;-8.87;100.00;98367.47;4999723;28;20409;-79
2024/01/11 07:36:51;;;;;;;51.55;26.15;;;;;;;-8.85;100.00;98375.88;5001849;28;20482;-79
2024/01/11 07:39:17;;;;;;;46.42;24.05;;;;;;;-8.84;100.00;98382.66;5010506;28;20428;-79
2024/01/11 07:41:43;;;;;;;47.70;23.87;;;;;;;-8.84;100.00;98395.50;5009929;28;20407;-79
2024/01/11 07:44:10;;;;;;;57.90;29.85;;;;;;;-8.82;100.00;98397.94;4999627;28;20449;-78
2024/01/11 07:46:36;;;;;;;59.80;29.98;;;;;;;-8.78;100.00;98400.19;4999410;28;20791;-79
2024/01/11 07:49:02;;;;;;;72.95;34.63;;;;;;;-8.73;100.00;98392.19;4998810;28;20403;-78
2024/01/11 07:51:29;;;;;;;71.45;34.35;;;;;;;-8.69;100.00;98389.31;4998748;28;20497;-79
2024/01/11 07:53:56;;;;;;;65.25;32.67;;;;;;;-8.64;100.00;98389.78;4998808;28;20403;-79
2024/01/11 07:56:22;;;;;;;68.10;32.22;;;;;;;-8.58;100.00;98392.88;4999463;28;20433;-79
2024/01/11 07:58:48;;;;;;;55.40;28.75;;;;;;;-8.56;100.00;98408.97;4999374;28;20816;-79
2024/01/11 08:01:16;;;;;;;56.40;28.47;;;;;;;-8.52;100.00;98415.53;4999438;28;20455;-79
2024/01/11 08:03:44;;;;;;;60.40;29.10;;;;;;;-8.49;100.00;98428.19;5000626;28;20871;-79
2024/01/11 08:06:11;;;;;;;55.58;27.00;;;;;;;-8.47;100.00;98434.81;4999189;28;20433;-79
2024/01/11 08:08:38;;;;;;;51.63;26.35;;;;;;;-8.43;100.00;98448.28;5000202;28;20445;-79
2024/01/11 08:11:05;;;;;;;67.07;33.35;;;;;;;-8.40;100.00;98440.34;5007481;28;20402;-78
2024/01/11 08:13:31;;;;;;;76.13;36.38;;;;;;;-8.35;100.00;98439.13;5012147;28;20406;-79
2024/01/11 08:15:57;;;;;;;86.43;39.05;;;;;;;-8.29;100.00;98436.09;5010597;28;20398;-79
2024/01/11 08:18:24;;;;;;;77.28;36.25;;;;;;;-8.23;100.00;98450.25;5013071;28;20806;-79
2024/01/11 08:20:50;;;;;;;69.75;35.20;;;;;;;-8.18;100.00;98449.91;5013380;28;20433;-79
2024/01/11 08:23:16;;;;;;;59.30;29.35;;;;;;;-8.12;100.00;98462.34;5011697;28;20457;-79
2024/01/11 08:25:44;;;;;;;57.30;29.48;;;;;;;-8.07;100.00;98455.94;5005881;28;20884;-79
2024/01/11 08:28:10;;;;;;;53.70;28.17;;;;;;;-8.02;100.00;98465.88;5003036;28;20445;-79
2024/01/11 08:30:36;;;;;;;53.42;27.70;;;;;;;-7.97;100.00;98464.63;5002843;28;20449;-79
2024/01/11 08:33:03;;;;;;;54.20;27.98;;;;;;;-7.91;100.00;98471.09;5000029;28;20398;-79
2024/01/11 08:35:32;;;;;;;52.42;28.60;;;;;;;-7.86;100.00;98469.00;5000373;28;20406;-79
2024/01/11 08:37:58;;;;;;;59.38;30.00;;;;;;;-7.79;100.00;98466.81;4999785;28;20399;-79
2024/01/11 08:40:25;;;;;;;57.33;30.50;;;;;;;-7.72;100.00;98462.88;5000335;28;20427;-78
2024/01/11 08:42:52;;;;;;;63.97;32.38;;;;;;;-7.64;100.00;98463.13;5003274;28;20842;-79
2024/01/11 08:45:19;;;;;;;63.95;30.60;;;;;;;-7.58;100.00;98466.09;4999660;28;20409;-79
2024/01/11 08:47:45;;;;;;;54.75;29.13;;;;;;;-7.51;100.00;98469.03;4999205;28;20868;-79
2024/01/11 08:50:13;;;;;;;57.05;29.83;;;;;;;-7.45;100.00;98469.41;4999458;28;20410;-80
2024/01/11 08:52:39;;;;;;;49.53;26.87;;;;;;;-7.38;100.00;98468.97;5000807;28;20406;-80
2024/01/11 08:55:06;;;;;;;64.93;34.33;;;;;;;-7.32;100.00;98465.94;4999864;28;20410;-79
2024/01/11 08:57:32;;;;;;;61.50;31.98;;;;;;;-7.26;100.00;98468.88;5009648;28;20445;-78
2024/01/11 08:59:59;;;;;;;67.67;34.93;;;;;;;-7.19;100.00;98466.66;5009807;28;20416;-78
2024/01/11 09:02:25;;;;;;;77.50;38.83;;;;;;;-7.14;100.00;98462.81;5004815;28;20403;-79
2024/01/11 09:04:51;;;;;;;96.32;47.28;;;;;;;-7.08;100.00;98469.28;5007913;28;20811;-79
2024/01/11 09:07:18;;;;;;;106.10;50.00;;;;;;;-7.02;100.00;98458.53;5003503;28;20414;-79
2024/01/11 09:09:44;;;;;;;104.53;52.60;;;;;;;-6.98;100.00;98457.34;4999261;28;20492;-79
2024/01/11 09:12:10;;;;;;;110.18;52.20;;;;;;;-6.93;100.00;98463.00;4999186;28;20488;-79
2024/01/11 09:14:37;;;;;;;94.68;46.80;;;;;;;-6.83;100.00;98473.38;4998072;28;20803;-79
2024/01/11 09:17:06;;;;;;;74.05;39.50;;;;;;;-6.76;100.00;98479.72;4998156;28;20402;-79
2024/01/11 09:19:33;;;;;;;70.25;36.63;;;;;;;-6.71;100.00;98481.03;4997790;28;20426;-79
2024/01/11 09:21:59;;;;;;;63.33;33.97;;;;;;;-6.64;100.00;98471.09;4996666;28;20475;-79
2024/01/11 09:24:26;;;;;;;69.65;38.00;;;;;;;-6.59;100.00;98471.53;4997631;28;20457;-79
2024/01/11 09:26:52;;;;;;;78.47;40.72;;;;;;;-6.52;100.00;98469.31;4996917;28;20403;-80
2024/01/11 09:29:18;;;;;;;71.75;37.63;;;;;;;-6.46;100.00;98461.94;4996844;28;20504;-79
2024/01/11 09:31:44;;;;;;;70.95;37.67;;;;;;;-6.41;100.00;98472.72;4997077;28;20398;-80
2024/01/11 09:34:12;;;;;;;67.38;36.08;;;;;;;-6.33;100.00;98496.13;4996614;28;20414;-80
2024/01/11 09:36:41;;;;;;;63.25;35.80;;;;;;;-6.24;100.00;98488.63;4984504;28;20388;-80
2024/01/11 09:39:08;;;;;;;62.10;33.72;;;;;;;-6.17;100.00;98488.03;4989746;28;20408;-79
2024/01/11 09:41:36;;;;;;;58.83;32.22;;;;;;;-6.07;100.00;98485.53;4984153;28;20400;-80
2024/01/11 09:44:05;;;;;;;58.53;32.70;;;;;;;-5.98;100.00;98483.06;4984987;28;20400;-80
2024/01/11 09:46:32;;;;;;;61.95;35.30;;;;;;;-5.88;100.00;98491.72;4988157;28;20417;-79
2024/01/11 09:49:00;;;;;;;63.35;36.65;;;;;;;-5.78;100.00;98498.69;4987923;28;20490;-80
2024/01/11 09:51:29;;;;;;;57.13;34.27;;;;;;;-5.66;100.00;98510.63;4988260;28;20488;-79
2024/01/11 09:53:57;;;;;;;58.30;32.88;;;;;;;-5.55;100.00;98502.84;4987963;28;20468;-80
2024/01/11 09:56:27;;;;;;;58.17;32.72;;;;;;;-5.44;100.00;98499.41;4998360;28;20828;-80
2024/01/11 09:58:53;;;;;;;53.15;31.35;;;;;;;-5.12;100.00;98501.03;4997282;28;21090;-80
2024/01/11 10:01:20;;;;;;;46.53;29.58;;;;;;;-4.18;100.00;98488.84;4997822;28;20434;-80
2024/01/11 10:03:46;;;;;;;39.65;26.27;;;;;;;-2.98;100.00;98494.53;4997498;28;20401;-80
2024/01/11 10:06:13;;;;;;;35.55;23.77;;;;;;;-1.88;100.00;98499.91;4997523;28;20902;-79
2024/01/11 10:08:41;;;;;;;33.85;22.95;;;;;;;-0.90;100.00;98495.44;4997150;28;20394;-80
2024/01/11 10:11:07;;;;;;;32.15;21.83;;;;;;;-0.07;100.00;98490.56;4997500;28;20733;-80
2024/01/11 10:13:35;;;;;;;30.73;20.20;;;;;;;0.58;100.00;98495.97;4996685;28;20407;-78
2024/01/11 10:16:10;;;;;;;30.25;20.73;;;;;;;1.15;100.00;98481.16;4996129;28;20497;-79
2024/01/11 10:18:36;;;;;;;33.75;22.27;;;;;;;1.63;100.00;98472.44;4996691;28;20435;-80
2024/01/11 10:21:03;;;;;;;31.38;21.83;;;;;;;2.05;100.00;98469.50;4996075;28;20418;-80
2024/01/11 10:23:33;;;;;;;30.27;21.08;;;;;;;2.50;100.00;98460.91;4995768;28;20402;-81
2024/01/11 10:26:00;;;;;;;28.98;19.50;;;;;;;2.92;100.00;98446.56;4997854;28;20398;-81
2024/01/11 10:28:26;;;;;;;47.85;31.13;;;;;;;3.11;100.00;98446.88;4996986;28;20402;-80
2024/01/11 10:30:54;;;;;;;52.35;32.13;;;;;;;3.33;100.00;98433.91;4999279;28;20775;-81
2024/01/11 10:33:21;;;;;;;43.35;28.27;;;;;;;3.61;100.00;98418.41;5006341;28;20398;-80
2024/01/11 10:35:50;;;;;;;37.00;24.35;;;;;;;3.95;100.00;98415.22;5006747;28;20402;-80
2024/01/11 10:38:19;;;;;;;34.88;22.00;;;;;;;4.32;100.00;98407.16;4983932;28;20408;-80
2024/01/11 10:40:46;;;;;;;31.10;20.80;;;;;;;4.67;100.00;98406.28;4989742;28;20416;-81
2024/01/11 10:43:19;;;;;;;32.63;21.08;;;;;;;5.02;100.00;98403.75;4985406;28;20488;-81
2024/01/11 10:45:48;;;;;;;31.63;19.83;;;;;;;5.27;100.00;98410.19;4983267;28;20411;-80
2024/01/11 10:48:15;;;;;;;31.88;20.58;;;;;;;5.49;100.00;98416.16;4984137;28;20459;-80
2024/01/11 10:50:44;;;;;;;33.40;19.73;;;;;;;5.74;100.00;98413.88;5002476;28;20406;-80
2024/01/11 10:53:21;;;;;;;30.00;18.98;;;;;;;6.05;100.00;98418.72;4999653;28;20414;-80
2024/01/11 10:55:48;;;;;;;29.77;18.13;;;;;;;6.34;100.00;98430.72;4986052;28;20411;-80
2024/01/11 10:58:18;;;;;;;29.92;19.50;;;;;;;6.54;100.00;98426.34;4986334;28;20430;-80
2024/01/11 11:00:46;;;;;;;31.33;17.73;;;;;;;6.67;100.00;98430.81;4981466;28;20511;-80
2024/01/11 11:03:14;;;;;;;25.80;17.05;;;;;;;6.72;100.00;98421.28;4986536;28;20406;-78
2024/01/11 11:05:42;;;;;;;29.98;19.00;;;;;;;6.73;100.00;98427.38;5001546;28;20454;-80
2024/01/11 11:08:11;;;;;;;28.92;18.35;;;;;;;6.73;100.00;98419.47;5002040;28;20403;-80